Parma Heights, Ohio
Current Conditions -  °F | °C
As of 6:51 PM on Monday 22 Dec 2014 (Local Time) from KCLE Reporting Station
Broken Clouds Broken Clouds  
Wind Chill: 32°   Ceiling: 25000
Heat Index: 39°   Visibility: 10mi
Dew Point: 30°   Wind: 10mph
Humidity: 70%   Direction: 120°ESE
Pressure: 29.95"   Gusts: NA
Location:  41.3776°N, 81.7863°W
Report Text: KCLE 222351Z 12009KT 10SM FEW150 BKN250 04/M01 A2995 RMK AO2 SLP149 T00391011 10067 20033 58012
Loading
Personal Weather Stations






























Interactive Weather Map New forecast layout! Learn more

10-Day Weather Forecast

Advertisements
Track Severe Weather on mobile